Time;durP1;ratioP1;P1;durP2;ratioP2;P2;SDS_P1;SDS_P2;PMS_P1;PMS_P2;Temp;Humidity;BMP_temperature;BMP_pressure;BME280_temperature;BME280_humidity;BME280_pressure;Samples;Min_cycle;Max_cycle;Signal;HPM_P1;HPM_P2
2022/04/29 00:00:55;;;;;;;14.90;6.53;;;8.00;99.90;;;;;;5064064;28;20549;-80
2022/04/29 00:03:22;;;;;;;14.83;7.57;;;8.00;99.90;;;;;;5063698;28;20293;-82
2022/04/29 00:05:49;;;;;;;13.37;7.50;;;7.90;99.90;;;;;;5050303;28;20197;-80
2022/04/29 00:08:16;;;;;;;14.20;6.90;;;7.90;99.90;;;;;;5073531;28;20204;-82
2022/04/29 00:10:44;;;;;;;14.50;7.90;;;7.90;99.90;;;;;;5052707;28;20636;-81
2022/04/29 00:13:14;;;;;;;15.90;7.33;;;7.90;99.90;;;;;;5070180;28;20208;-81
2022/04/29 00:15:41;;;;;;;14.87;7.20;;;7.90;99.90;;;;;;5070563;28;20215;-80
2022/04/29 00:18:09;;;;;;;14.03;7.50;;;7.90;99.90;;;;;;5079495;28;20478;-81
2022/04/29 00:20:36;;;;;;;15.60;8.10;;;7.90;99.90;;;;;;5073147;28;20637;-82
2022/04/29 00:23:03;;;;;;;14.40;7.53;;;7.80;99.90;;;;;;5062937;28;20725;-81
2022/04/29 00:25:30;;;;;;;13.80;7.90;;;7.90;99.90;;;;;;5042744;28;20204;-81
2022/04/29 00:27:57;;;;;;;12.77;7.50;;;7.80;99.90;;;;;;5060091;28;20305;-80
2022/04/29 00:30:24;;;;;;;20.43;8.30;;;7.80;99.90;;;;;;5049982;28;20204;-79
2022/04/29 00:32:51;;;;;;;18.00;8.33;;;7.70;99.90;;;;;;5066875;28;20265;-82
2022/04/29 00:35:18;;;;;;;14.57;7.73;;;7.70;99.90;;;;;;5065744;28;20243;-81
2022/04/29 00:37:55;;;;;;;13.27;7.00;;;7.60;99.90;;;;;;5066011;28;20234;-81
2022/04/29 00:40:29;;;;;;;17.13;8.17;;;7.60;99.90;;;;;;5056473;28;20628;-81
2022/04/29 00:42:56;;;;;;;19.67;9.53;;;7.60;99.90;;;;;;5058938;28;20243;-81
2022/04/29 00:45:24;;;;;;;17.33;8.30;;;7.50;99.90;;;;;;5057902;28;20802;-80
2022/04/29 00:47:52;;;;;;;17.87;8.27;;;7.50;99.90;;;;;;5063661;28;20235;-80
2022/04/29 00:50:23;;;;;;;18.83;8.47;;;7.40;99.90;;;;;;5055616;28;20209;-81
2022/04/29 00:52:53;;;;;;;14.90;8.50;;;7.40;99.90;;;;;;5048761;28;20245;-81
2022/04/29 00:55:21;;;;;;;17.27;8.23;;;7.40;99.90;;;;;;5065347;28;20229;-81
2022/04/29 00:58:16;;;;;;;23.50;9.13;;;7.40;99.90;;;;;;5065189;28;20273;-81
2022/04/29 01:00:43;;;;;;;18.93;9.00;;;7.40;99.90;;;;;;5058964;28;20549;-80
2022/04/29 01:03:15;;;;;;;15.63;8.10;;;7.30;99.90;;;;;;5066130;28;20724;-81
2022/04/29 01:05:42;;;;;;;13.70;7.87;;;7.30;99.90;;;;;;5064253;28;20267;-81
2022/04/29 01:08:10;;;;;;;22.73;8.87;;;7.30;99.90;;;;;;5062144;28;20207;-81
2022/04/29 01:10:38;;;;;;;15.10;8.93;;;7.20;99.90;;;;;;5060659;28;20258;-82
2022/04/29 01:13:05;;;;;;;16.20;8.23;;;7.20;99.90;;;;;;5059515;28;20589;-82
2022/04/29 01:15:33;;;;;;;16.77;8.57;;;7.20;99.90;;;;;;5066405;28;20241;-80
2022/04/29 01:18:02;;;;;;;19.43;9.00;;;7.20;99.90;;;;;;5067170;28;20233;-81
2022/04/29 01:20:31;;;;;;;20.67;8.50;;;7.10;99.90;;;;;;5061935;28;20697;-81
2022/04/29 01:23:03;;;;;;;16.20;8.80;;;7.10;99.90;;;;;;5066458;28;20217;-81
2022/04/29 01:25:30;;;;;;;14.77;7.67;;;7.10;99.90;;;;;;5045686;28;20248;-82
2022/04/29 01:27:57;;;;;;;18.13;8.67;;;7.00;99.90;;;;;;5059605;28;20267;-80
2022/04/29 01:30:24;;;;;;;17.80;8.50;;;7.00;99.90;;;;;;5058721;28;20315;-79
2022/04/29 01:32:53;;;;;;;14.40;8.57;;;7.00;99.90;;;;;;5066693;28;21080;-81
2022/04/29 01:35:20;;;;;;;21.57;8.53;;;7.00;99.90;;;;;;5048713;28;20267;-80
2022/04/29 01:37:49;;;;;;;18.30;8.57;;;7.00;99.90;;;;;;5061717;28;20327;-82
2022/04/29 01:40:16;;;;;;;15.73;8.47;;;6.90;99.90;;;;;;5060077;28;20244;-81
2022/04/29 01:42:44;;;;;;;16.57;8.47;;;6.90;99.90;;;;;;5046492;28;20241;-81
2022/04/29 01:45:11;;;;;;;19.77;9.20;;;6.90;99.90;;;;;;5063736;28;20205;-82
2022/04/29 01:47:38;;;;;;;19.67;8.53;;;6.90;99.90;;;;;;5057369;28;20218;-81
2022/04/29 01:50:05;;;;;;;23.77;9.40;;;6.80;99.90;;;;;;5066030;28;20212;-80
2022/04/29 01:52:32;;;;;;;17.43;9.50;;;6.80;99.90;;;;;;5041754;28;20738;-82
2022/04/29 01:54:59;;;;;;;19.77;8.77;;;6.80;99.90;;;;;;5045211;28;20206;-81
2022/04/29 01:57:26;;;;;;;20.63;10.07;;;6.80;99.90;;;;;;5065036;28;20255;-81
2022/04/29 01:59:53;;;;;;;20.73;9.30;;;6.80;99.90;;;;;;5067281;28;20653;-81
2022/04/29 02:02:21;;;;;;;23.47;9.27;;;6.80;99.90;;;;;;5062172;28;20208;-81
2022/04/29 02:04:48;;;;;;;16.33;8.73;;;6.80;99.90;;;;;;5066471;28;20290;-81
2022/04/29 02:07:15;;;;;;;18.73;9.13;;;6.70;99.90;;;;;;5045391;28;20203;-81
2022/04/29 02:09:42;;;;;;;16.43;8.90;;;6.80;99.90;;;;;;5063322;28;20249;-81
2022/04/29 02:12:11;;;;;;;14.47;7.87;;;6.70;99.90;;;;;;5068462;28;20284;-82
2022/04/29 02:14:40;;;;;;;21.30;9.47;;;6.80;99.90;;;;;;5053852;28;20213;-80
2022/04/29 02:17:08;;;;;;;14.53;8.47;;;6.70;99.90;;;;;;5069670;28;20202;-81
2022/04/29 02:19:36;;;;;;;15.97;9.77;;;6.70;99.90;;;;;;5067444;28;20308;-79
2022/04/29 02:22:08;;;;;;;24.10;8.83;;;6.70;99.90;;;;;;5067471;28;20221;-81
2022/04/29 02:24:36;;;;;;;21.10;9.20;;;6.70;99.90;;;;;;5070260;28;20263;-80
2022/04/29 02:27:04;;;;;;;20.97;8.80;;;6.70;99.90;;;;;;5063996;28;20195;-80
2022/04/29 02:29:31;;;;;;;18.77;8.67;;;6.70;99.90;;;;;;5054408;28;20206;-81
2022/04/29 02:31:58;;;;;;;17.20;9.03;;;6.70;99.90;;;;;;5062493;28;20290;-80
2022/04/29 02:34:25;;;;;;;17.20;8.70;;;6.70;99.90;;;;;;5066126;28;20228;-79
2022/04/29 02:36:53;;;;;;;18.80;9.30;;;6.70;99.90;;;;;;5051964;28;20248;-79
2022/04/29 02:39:21;;;;;;;26.30;9.37;;;6.70;99.90;;;;;;5068275;28;20196;-81
2022/04/29 02:41:48;;;;;;;18.47;9.03;;;6.70;99.90;;;;;;5066553;28;20273;-81
2022/04/29 02:44:15;;;;;;;22.00;9.37;;;6.70;99.90;;;;;;5065626;28;20238;-81
2022/04/29 02:49:27;;;;;;;17.37;8.73;;;6.70;99.90;;;;;;5068566;28;20218;-80
2022/04/29 02:51:54;;;;;;;22.27;9.73;;;6.70;99.90;;;;;;5060867;28;20288;-80
2022/04/29 02:54:22;;;;;;;25.57;9.70;;;6.70;99.90;;;;;;5066961;28;20641;-80
2022/04/29 02:56:52;;;;;;;25.60;9.53;;;6.70;99.90;;;;;;5065271;28;20622;-80
2022/04/29 02:59:21;;;;;;;23.03;9.87;;;6.70;99.90;;;;;;5068921;28;20650;-80
2022/04/29 03:01:48;;;;;;;20.53;9.30;;;6.70;99.90;;;;;;5064532;28;20207;-81
2022/04/29 03:04:16;;;;;;;15.17;8.63;;;6.70;99.90;;;;;;5068358;28;20233;-81
2022/04/29 03:06:44;;;;;;;19.63;8.93;;;6.70;99.90;;;;;;5064275;28;20248;-80
2022/04/29 03:09:11;;;;;;;16.67;8.97;;;6.70;99.90;;;;;;5066524;28;20214;-81
2022/04/29 03:11:38;;;;;;;21.47;8.97;;;6.70;99.90;;;;;;5068917;28;20226;-81
2022/04/29 03:14:05;;;;;;;18.40;8.90;;;6.70;99.90;;;;;;5061378;28;20248;-79
2022/04/29 03:16:33;;;;;;;16.83;8.50;;;6.80;99.90;;;;;;5063355;28;20680;-80
2022/04/29 03:19:00;;;;;;;17.37;8.90;;;6.70;99.90;;;;;;5065583;28;20257;-81
2022/04/29 03:21:27;;;;;;;22.80;9.30;;;6.70;99.90;;;;;;5066730;28;20214;-80
2022/04/29 03:23:54;;;;;;;16.50;9.47;;;6.80;99.90;;;;;;5050506;28;20233;-80
2022/04/29 03:26:21;;;;;;;16.17;8.57;;;6.80;99.90;;;;;;5061741;28;20241;-81
2022/04/29 03:28:48;;;;;;;22.30;9.60;;;6.80;99.90;;;;;;5067393;28;20211;-82
2022/04/29 03:31:14;;;;;;;23.13;8.50;;;6.80;99.90;;;;;;5060027;28;20246;-81
2022/04/29 03:33:41;;;;;;;24.83;9.07;;;6.80;99.90;;;;;;5068106;28;20208;-81
2022/04/29 03:36:09;;;;;;;18.33;8.63;;;6.80;99.90;;;;;;5060199;28;20683;-81
2022/04/29 03:38:35;;;;;;;15.53;9.50;;;6.80;99.90;;;;;;5067823;28;20217;-81
2022/04/29 03:41:03;;;;;;;17.87;9.70;;;6.80;99.90;;;;;;5066691;28;20690;-80
2022/04/29 03:43:30;;;;;;;20.73;9.67;;;6.80;99.90;;;;;;5066719;28;20269;-81
2022/04/29 03:45:57;;;;;;;20.93;8.80;;;6.80;99.90;;;;;;5065765;28;20205;-82
2022/04/29 03:48:24;;;;;;;16.37;8.70;;;6.80;99.90;;;;;;5051264;28;20293;-80
2022/04/29 03:50:51;;;;;;;23.30;9.07;;;6.80;99.90;;;;;;5066386;28;20237;-81
2022/04/29 03:53:22;;;;;;;17.70;8.53;;;6.80;99.90;;;;;;5061549;28;20239;-79
2022/04/29 03:55:49;;;;;;;21.27;9.23;;;6.80;99.90;;;;;;5059755;28;20211;-81
2022/04/29 03:58:16;;;;;;;16.50;8.63;;;6.80;99.90;;;;;;5061124;28;20293;-79
2022/04/29 04:00:43;;;;;;;17.80;8.53;;;6.80;99.90;;;;;;5050502;28;20242;-80
2022/04/29 04:03:10;;;;;;;14.53;8.90;;;6.80;99.90;;;;;;5064347;28;20203;-80
2022/04/29 04:06:49;;;;;;;21.53;8.87;;;6.80;99.90;;;;;;5067710;28;20203;-81
2022/04/29 04:08:25;;;;;;;17.47;9.00;;;6.80;99.90;;;;;;5061953;28;20214;-80
2022/04/29 04:10:52;;;;;;;20.47;8.83;;;6.80;99.90;;;;;;5063830;28;20210;-81
2022/04/29 04:13:18;;;;;;;18.23;8.30;;;6.80;99.90;;;;;;5061369;28;20241;-81
2022/04/29 04:15:45;;;;;;;19.63;9.03;;;6.80;99.90;;;;;;5062490;28;20279;-80
2022/04/29 04:18:12;;;;;;;20.00;9.47;;;6.80;99.90;;;;;;5067711;28;20529;-82
2022/04/29 04:20:39;;;;;;;22.47;8.63;;;6.80;99.90;;;;;;5068771;28;20204;-81
2022/04/29 04:23:07;;;;;;;22.13;8.33;;;6.80;99.90;;;;;;5068168;28;20240;-81
2022/04/29 04:25:33;;;;;;;21.77;8.67;;;6.80;99.90;;;;;;5064008;28;20216;-81
2022/04/29 04:28:00;;;;;;;20.03;9.37;;;6.80;99.90;;;;;;5064956;28;20208;-80
2022/04/29 04:30:27;;;;;;;23.37;10.00;;;6.80;99.90;;;;;;5067858;28;20658;-81
2022/04/29 04:32:54;;;;;;;17.57;8.80;;;6.80;99.90;;;;;;5058551;28;20292;-80
2022/04/29 04:35:21;;;;;;;18.60;8.60;;;6.80;99.90;;;;;;5066052;28;20207;-82
2022/04/29 04:37:48;;;;;;;20.23;9.87;;;6.90;99.90;;;;;;5062020;28;20296;-81
2022/04/29 04:40:15;;;;;;;19.80;9.37;;;6.80;99.90;;;;;;5064494;28;20538;-81
2022/04/29 04:42:46;;;;;;;19.33;9.33;;;6.80;99.90;;;;;;5067033;28;20244;-81
2022/04/29 04:45:14;;;;;;;20.40;8.70;;;6.80;99.90;;;;;;5066950;28;20305;-81
2022/04/29 04:47:41;;;;;;;18.67;8.63;;;6.90;99.90;;;;;;5068303;28;20257;-80
2022/04/29 04:50:08;;;;;;;20.60;8.73;;;6.90;99.90;;;;;;5045687;28;20250;-80
2022/04/29 04:52:35;;;;;;;16.63;8.97;;;6.90;99.90;;;;;;5069102;28;20321;-81
2022/04/29 04:55:07;;;;;;;16.43;9.30;;;6.90;99.90;;;;;;5063079;28;20572;-80
2022/04/29 04:57:33;;;;;;;18.33;9.40;;;6.90;99.90;;;;;;5061878;28;20262;-81
2022/04/29 05:00:00;;;;;;;17.37;8.57;;;6.90;99.90;;;;;;5069600;28;20203;-79
2022/04/29 05:02:27;;;;;;;17.97;8.83;;;6.90;99.90;;;;;;5067044;28;20216;-80
2022/04/29 05:04:58;;;;;;;19.70;9.13;;;6.90;99.90;;;;;;5087562;28;20182;-81
2022/04/29 05:07:24;;;;;;;17.70;9.20;;;6.90;99.90;;;;;;5092047;28;20200;-80
2022/04/29 05:09:52;;;;;;;16.97;8.43;;;6.90;99.90;;;;;;5092795;28;20201;-80
2022/04/29 05:12:19;;;;;;;23.70;8.60;;;6.90;99.90;;;;;;5087266;28;20223;-80
2022/04/29 05:14:47;;;;;;;16.80;8.10;;;6.90;99.90;;;;;;5078018;28;20300;-81
2022/04/29 05:17:13;;;;;;;19.87;7.47;;;6.90;99.90;;;;;;5070795;28;20652;-82
2022/04/29 05:19:40;;;;;;;20.97;10.00;;;6.90;99.90;;;;;;5048395;28;20668;-83
2022/04/29 05:22:08;;;;;;;16.43;8.60;;;6.90;99.90;;;;;;5063096;28;20256;-83
2022/04/29 05:24:35;;;;;;;16.43;8.87;;;6.90;99.90;;;;;;5068836;28;20203;-81
2022/04/29 05:27:02;;;;;;;18.27;8.30;;;7.00;99.90;;;;;;5062813;28;20218;-80
2022/04/29 05:29:28;;;;;;;18.63;8.27;;;6.90;99.90;;;;;;5062558;28;20305;-80
2022/04/29 05:31:56;;;;;;;17.67;8.73;;;6.90;99.90;;;;;;5061147;28;20618;-81
2022/04/29 05:34:23;;;;;;;19.50;8.50;;;7.00;99.90;;;;;;5067141;28;20268;-79
2022/04/29 05:36:50;;;;;;;16.67;8.97;;;7.00;99.90;;;;;;5061862;28;20908;-82
2022/04/29 05:42:14;;;;;;;16.03;7.87;;;7.10;99.90;;;;;;5060070;28;20304;-81
2022/04/29 05:44:42;;;;;;;17.43;8.47;;;7.10;99.90;;;;;;5069138;28;20596;-82
2022/04/29 05:47:09;;;;;;;15.83;8.67;;;7.20;99.90;;;;;;5070571;28;20385;-83
2022/04/29 05:49:37;;;;;;;21.17;9.23;;;7.20;99.90;;;;;;5068509;28;20206;-82
2022/04/29 05:52:06;;;;;;;19.57;8.90;;;7.30;99.90;;;;;;5067492;28;20703;-80
2022/04/29 05:54:33;;;;;;;20.77;8.73;;;7.30;99.90;;;;;;5058623;28;20211;-81
2022/04/29 05:57:04;;;;;;;16.87;8.13;;;7.40;99.90;;;;;;5057505;28;20241;-81
2022/04/29 05:59:31;;;;;;;23.93;8.80;;;7.50;99.90;;;;;;5078417;28;20192;-80
2022/04/29 06:02:08;;;;;;;18.57;10.23;;;7.60;99.90;;;;;;5079291;28;20192;-79
2022/04/29 06:04:38;;;;;;;14.20;8.87;;;7.70;99.90;;;;;;5080543;28;20225;-80
2022/04/29 06:07:05;;;;;;;20.90;10.33;;;7.70;99.90;;;;;;5073670;28;20192;-80
2022/04/29 06:09:32;;;;;;;18.37;8.60;;;7.80;99.90;;;;;;5071125;28;20234;-82
2022/04/29 06:11:59;;;;;;;16.73;8.93;;;7.90;99.90;;;;;;5069138;28;20742;-81
2022/04/29 06:14:29;;;;;;;20.37;9.77;;;8.00;99.90;;;;;;5068727;28;20211;-81
2022/04/29 06:16:57;;;;;;;22.80;9.00;;;8.10;99.90;;;;;;5066135;28;20274;-82
2022/04/29 06:19:24;;;;;;;17.57;8.47;;;8.20;99.90;;;;;;5047540;28;20212;-81
2022/04/29 06:21:51;;;;;;;14.20;8.50;;;8.20;99.90;;;;;;5067644;28;20218;-80
2022/04/29 06:24:18;;;;;;;19.03;8.53;;;8.30;99.90;;;;;;5064387;28;20867;-80
2022/04/29 06:26:45;;;;;;;14.50;7.70;;;8.50;99.90;;;;;;5069481;28;20216;-80
2022/04/29 06:29:12;;;;;;;15.07;7.57;;;8.40;99.90;;;;;;5069506;28;20207;-81
2022/04/29 06:31:39;;;;;;;17.57;7.67;;;8.50;99.90;;;;;;5069968;28;20201;-81
2022/04/29 06:34:06;;;;;;;17.23;7.30;;;8.50;99.90;;;;;;5044817;28;20626;-81
2022/04/29 06:36:33;;;;;;;17.73;7.80;;;8.60;99.90;;;;;;5070537;28;20211;-81
2022/04/29 06:39:00;;;;;;;12.77;7.47;;;8.70;99.90;;;;;;5066714;28;20664;-81
2022/04/29 06:41:28;;;;;;;16.43;7.27;;;8.80;99.90;;;;;;5063855;28;20212;-82
2022/04/29 06:43:54;;;;;;;17.00;7.53;;;8.90;99.90;;;;;;5067931;28;20621;-80
2022/04/29 06:46:24;;;;;;;16.53;8.00;;;8.90;99.90;;;;;;5070174;28;20209;-81
2022/04/29 06:48:54;;;;;;;15.40;8.43;;;9.10;99.90;;;;;;5067931;28;20576;-80
2022/04/29 06:51:22;;;;;;;15.07;7.83;;;9.20;99.90;;;;;;5069337;28;20196;-80
2022/04/29 06:53:49;;;;;;;11.83;7.27;;;9.30;99.90;;;;;;5066354;28;20282;-81
2022/04/29 06:56:16;;;;;;;16.47;7.70;;;9.40;99.90;;;;;;5049932;28;20267;-81
2022/04/29 06:58:43;;;;;;;19.73;8.20;;;9.60;99.90;;;;;;5064805;28;20678;-81
2022/04/29 07:01:16;;;;;;;16.63;8.00;;;9.70;99.90;;;;;;5047213;28;20730;-82
2022/04/29 07:03:43;;;;;;;21.77;8.10;;;9.90;99.90;;;;;;5066436;28;20459;-80
2022/04/29 07:06:10;;;;;;;9.87;6.27;;;10.10;99.90;;;;;;5062349;28;20232;-81
2022/04/29 07:08:37;;;;;;;16.80;7.53;;;10.20;99.90;;;;;;5068310;28;20218;-81
2022/04/29 07:11:07;;;;;;;17.20;8.07;;;10.30;99.90;;;;;;5065813;28;20232;-82
2022/04/29 07:13:34;;;;;;;16.07;7.50;;;10.30;99.90;;;;;;5066622;28;20265;-82
2022/04/29 07:16:01;;;;;;;18.30;7.90;;;10.40;99.90;;;;;;5065063;28;20197;-81
2022/04/29 07:18:28;;;;;;;19.63;8.47;;;10.30;99.90;;;;;;5045751;28;20214;-82
2022/04/29 07:20:54;;;;;;;12.73;6.87;;;10.40;99.90;;;;;;5065337;28;20201;-82
2022/04/29 07:23:22;;;;;;;15.10;7.77;;;11.20;99.90;;;;;;5066588;28;20540;-81
2022/04/29 07:25:50;;;;;;;17.10;7.20;;;10.80;99.90;;;;;;5050732;28;20993;-82
2022/04/29 07:28:17;;;;;;;13.90;7.20;;;11.00;99.90;;;;;;5061568;28;20216;-82
2022/04/29 07:30:44;;;;;;;16.03;7.73;;;11.20;99.90;;;;;;5068138;28;20969;-83
2022/04/29 07:33:11;;;;;;;12.70;6.43;;;11.50;99.90;;;;;;5048870;28;20244;-81
2022/04/29 07:43:55;;;;;;;10.10;6.80;;;12.60;99.90;;;;;;5066576;28;20584;-82
2022/04/29 07:46:23;;;;;;;13.57;7.20;;;12.70;99.90;;;;;;5065730;28;20196;-83
2022/04/29 07:48:50;;;;;;;11.43;6.50;;;12.80;99.90;;;;;;5065252;28;20235;-83
2022/04/29 07:51:17;;;;;;;14.43;7.03;;;13.00;99.90;;;;;;5051344;28;20204;-81
2022/04/29 07:53:44;;;;;;;10.80;6.90;;;12.90;99.90;;;;;;5049877;28;20234;-82
2022/04/29 07:56:11;;;;;;;14.10;7.23;;;13.00;99.90;;;;;;5049976;28;20208;-82
2022/04/29 07:58:38;;;;;;;12.87;7.07;;;13.00;99.90;;;;;;5068299;28;20603;-83
2022/04/29 08:01:09;;;;;;;14.40;7.43;;;13.10;99.90;;;;;;5061260;28;20209;-82
2022/04/29 08:03:37;;;;;;;11.13;6.67;;;13.10;99.90;;;;;;5048209;28;20212;-83
2022/04/29 08:06:05;;;;;;;14.07;8.07;;;13.20;99.90;;;;;;5038100;28;20235;-83
2022/04/29 08:08:33;;;;;;;14.90;7.30;;;13.40;99.90;;;;;;5045605;28;20216;-82
2022/04/29 08:11:00;;;;;;;14.97;6.70;;;13.40;99.90;;;;;;5049660;28;20250;-81
2022/04/29 08:13:28;;;;;;;14.43;7.23;;;14.10;99.90;;;;;;5051708;28;20230;-81
2022/04/29 08:15:54;;;;;;;16.57;8.17;;;14.10;99.90;;;;;;5070681;28;20258;-83
2022/04/29 08:18:21;;;;;;;13.17;7.57;;;13.70;99.90;;;;;;5071047;28;20207;-82
2022/04/29 08:20:48;;;;;;;11.83;6.80;;;13.70;99.90;;;;;;5066350;28;20227;-82
2022/04/29 08:23:15;;;;;;;14.87;7.87;;;13.60;99.90;;;;;;5051137;28;20298;-82
2022/04/29 08:25:42;;;;;;;15.67;7.77;;;13.60;99.90;;;;;;5060950;28;20237;-82
2022/04/29 08:28:09;;;;;;;15.87;8.13;;;13.50;99.90;;;;;;5058589;28;20578;-82
2022/04/29 08:30:36;;;;;;;12.43;7.27;;;13.40;99.90;;;;;;5062901;28;20613;-83
2022/04/29 08:33:03;;;;;;;13.57;7.03;;;13.40;99.90;;;;;;5067590;28;21014;-81
2022/04/29 08:35:30;;;;;;;12.73;7.33;;;13.50;99.90;;;;;;5050650;28;20595;-83
2022/04/29 08:37:57;;;;;;;15.60;7.70;;;13.40;99.90;;;;;;5046692;28;20212;-81
2022/04/29 08:40:25;;;;;;;14.70;7.47;;;13.40;99.90;;;;;;5048571;28;20685;-84
2022/04/29 08:42:54;;;;;;;12.23;7.90;;;13.50;99.90;;;;;;5065151;28;20232;-82
2022/04/29 08:45:22;;;;;;;15.67;7.93;;;13.60;99.90;;;;;;5061735;28;20212;-82
2022/04/29 08:47:49;;;;;;;17.30;7.73;;;13.50;99.90;;;;;;5060131;28;20270;-82
2022/04/29 08:50:20;;;;;;;14.43;7.67;;;13.50;99.90;;;;;;5066983;28;20196;-82
2022/04/29 08:52:49;;;;;;;13.33;7.43;;;13.50;99.90;;;;;;5048356;28;20214;-85
2022/04/29 09:00:49;;;;;;;14.57;7.47;;;14.00;99.90;;;;;;5065677;28;20252;-83
2022/04/29 09:03:21;;;;;;;16.53;7.90;;;14.20;99.90;;;;;;5050337;28;20196;-82
2022/04/29 09:05:50;;;;;;;15.97;7.97;;;14.30;99.90;;;;;;5045836;28;20702;-84
2022/04/29 09:08:21;;;;;;;14.93;6.87;;;14.50;99.90;;;;;;5060602;28;20528;-83
2022/04/29 09:10:49;;;;;;;12.03;7.03;;;14.60;99.90;;;;;;5049272;28;20204;-82
2022/04/29 09:13:31;;;;;;;15.80;7.93;;;14.80;99.90;;;;;;5065922;28;20216;-81
2022/04/29 09:16:04;;;;;;;16.13;7.83;;;14.90;99.90;;;;;;5065698;28;20492;-83
2022/04/29 09:18:39;;;;;;;14.50;8.17;;;14.70;99.90;;;;;;5065158;28;20208;-82
2022/04/29 09:21:13;;;;;;;15.70;7.57;;;14.70;99.90;;;;;;5061091;28;20270;-82
2022/04/29 09:23:54;;;;;;;12.53;7.20;;;14.90;99.90;;;;;;5047169;28;20617;-83
2022/04/29 09:26:38;;;;;;;15.00;7.10;;;15.20;99.90;;;;;;5055528;28;20208;-82
2022/04/29 09:29:10;;;;;;;11.77;6.70;;;;;;;;;;5059897;28;20720;-84
2022/04/29 09:31:53;;;;;;;12.93;6.43;;;15.70;99.90;;;;;;5062699;28;20209;-84
2022/04/29 09:34:50;;;;;;;12.43;6.45;;;16.10;99.90;;;;;;5065919;28;20232;-83
2022/04/29 09:37:20;;;;;;;10.23;5.75;;;16.20;99.90;;;;;;5067137;28;20224;-84
2022/04/29 09:40:04;;;;;;;8.95;6.05;;;16.10;99.90;;;;;;5064342;28;20212;-83
2022/04/29 09:42:42;;;;;;;9.77;6.40;;;16.10;99.90;;;;;;5063620;28;20250;-84
2022/04/29 09:45:22;;;;;;;11.00;6.70;;;16.20;99.90;;;;;;5063580;28;20292;-84
2022/04/29 09:47:58;;;;;;;10.63;6.60;;;16.10;99.90;;;;;;5045620;28;20652;-85
2022/04/29 09:50:47;;;;;;;11.07;6.25;;;16.20;99.90;;;;;;5067236;28;20215;-83
2022/04/29 09:53:25;;;;;;;11.47;6.67;;;16.10;99.90;;;;;;5055797;28;20341;-85
2022/04/29 09:56:09;;;;;;;9.87;6.63;;;16.00;99.90;;;;;;5067529;28;20647;-86
2022/04/29 09:58:36;;;;;;;13.10;6.30;;;16.00;99.90;;;;;;5065100;28;20669;-86
2022/04/29 10:01:04;;;;;;;11.50;6.97;;;15.90;99.90;;;;;;5064362;28;20201;-84
2022/04/29 10:03:33;;;;;;;10.10;5.93;;;15.70;99.90;;;;;;5046484;28;20527;-82
2022/04/29 10:06:02;;;;;;;11.80;6.77;;;15.60;99.90;;;;;;5050656;28;20700;-82
2022/04/29 10:08:31;;;;;;;9.97;6.63;;;15.60;99.90;;;;;;5065894;28;20233;-82
2022/04/29 10:10:59;;;;;;;11.07;6.67;;;15.60;99.90;;;;;;5059426;28;20545;-81
2022/04/29 10:13:27;;;;;;;12.97;6.90;;;15.50;99.90;;;;;;5061488;28;20794;-86
2022/04/29 10:15:57;;;;;;;19.37;6.50;;;15.50;99.90;;;;;;5068919;28;20216;-84
2022/04/29 10:21:17;;;;;;;13.63;6.73;;;15.50;99.90;;;;;;5067495;28;20277;-85
2022/04/29 10:23:50;;;;;;;16.43;7.20;;;15.40;99.90;;;;;;5072266;28;20659;-82
2022/04/29 10:26:18;;;;;;;9.07;6.17;;;15.40;99.90;;;;;;5068820;28;20205;-81
2022/04/29 10:28:45;;;;;;;13.03;6.23;;;15.30;99.90;;;;;;5059558;28;20223;-83
2022/04/29 10:31:20;;;;;;;10.17;5.80;;;15.20;99.90;;;;;;5090137;28;20230;-82
2022/04/29 10:33:48;;;;;;;12.77;6.60;;;15.10;99.90;;;;;;5081990;28;20289;-83
2022/04/29 10:36:16;;;;;;;10.77;7.20;;;15.10;99.90;;;;;;5076057;28;20227;-84
2022/04/29 10:38:46;;;;;;;16.60;6.93;;;15.10;99.90;;;;;;5071854;28;20204;-83
2022/04/29 10:41:20;;;;;;;11.90;6.23;;;15.00;99.90;;;;;;5075330;28;20645;-83
2022/04/29 10:43:50;;;;;;;11.13;6.00;;;15.00;99.90;;;;;;5071337;28;20234;-83
2022/04/29 10:46:29;;;;;;;11.47;6.40;;;15.00;99.90;;;;;;5072165;28;20295;-85
2022/04/29 10:48:57;;;;;;;14.30;6.70;;;15.10;99.90;;;;;;5070415;28;20223;-84
2022/04/29 10:51:26;;;;;;;9.27;6.37;;;15.10;99.90;;;;;;5071693;28;20192;-83
2022/04/29 10:53:57;;;;;;;13.23;6.90;;;15.20;99.90;;;;;;5077806;28;20256;-84
2022/04/29 10:56:30;;;;;;;11.10;5.93;;;15.20;99.90;;;;;;5053660;28;20213;-83
2022/04/29 10:59:09;;;;;;;9.87;6.70;;;15.20;99.90;;;;;;5048756;28;20208;-84
2022/04/29 11:01:38;;;;;;;13.17;6.37;;;15.20;99.90;;;;;;5071238;28;20269;-84
2022/04/29 11:04:27;;;;;;;8.13;5.23;;;15.10;99.90;;;;;;5068933;28;20584;-83
2022/04/29 11:06:54;;;;;;;7.83;5.73;;;15.10;99.90;;;;;;5069859;28;20246;-83
2022/04/29 11:09:47;;;;;;;9.57;5.10;;;15.10;99.90;;;;;;5045102;28;20380;-84
2022/04/29 11:12:37;;;;;;;6.83;5.33;;;15.10;99.90;;;;;;5057142;28;20210;-83
2022/04/29 11:15:15;;;;;;;10.53;5.87;;;15.10;99.90;;;;;;5072162;28;20277;-83
2022/04/29 11:17:42;;;;;;;15.00;6.53;;;15.10;99.90;;;;;;5052593;28;20683;-84
2022/04/29 11:20:23;;;;;;;7.40;5.50;;;15.10;99.90;;;;;;5066585;28;20297;-84
2022/04/29 11:25:48;;;;;;;12.30;6.17;;;15.20;99.90;;;;;;5067212;28;20250;-84
2022/04/29 11:28:16;;;;;;;9.40;6.03;;;15.20;99.90;;;;;;5065621;28;20675;-84
2022/04/29 11:30:43;;;;;;;7.63;5.60;;;15.30;99.90;;;;;;5066470;28;20597;-86
2022/04/29 11:33:11;;;;;;;10.37;6.10;;;15.30;99.90;;;;;;5059517;28;21031;-85
2022/04/29 11:35:38;;;;;;;8.80;5.40;;;15.30;99.90;;;;;;5063571;28;20252;-83
2022/04/29 11:38:07;;;;;;;8.30;5.50;;;15.30;99.90;;;;;;5056079;28;20615;-82
2022/04/29 11:40:38;;;;;;;11.17;6.00;;;15.20;99.90;;;;;;5070659;28;20235;-83
2022/04/29 11:43:08;;;;;;;9.00;6.20;;;15.30;99.90;;;;;;5058428;28;20271;-83
2022/04/29 11:45:37;;;;;;;8.93;6.20;;;15.40;99.90;;;;;;5049611;28;20568;-84
2022/04/29 11:48:08;;;;;;;8.30;6.23;;;15.60;99.90;;;;;;5068007;28;20244;-82
2022/04/29 11:50:36;;;;;;;11.20;6.03;;;15.80;99.90;;;;;;5068453;28;20232;-83
2022/04/29 11:53:08;;;;;;;9.33;6.07;;;15.90;99.90;;;;;;5066708;28;20204;-83
2022/04/29 11:55:36;;;;;;;10.43;5.77;;;16.00;99.90;;;;;;5064766;28;20228;-83
2022/04/29 11:58:04;;;;;;;13.87;6.07;;;16.00;99.90;;;;;;5065046;28;20627;-84
2022/04/29 12:00:34;;;;;;;11.60;6.03;;;16.00;99.90;;;;;;5066767;28;20299;-83
2022/04/29 12:03:04;;;;;;;10.00;6.07;;;16.00;99.90;;;;;;5075351;28;20270;-83
2022/04/29 12:05:32;;;;;;;9.57;6.33;;;16.00;99.90;;;;;;5081551;28;20262;-82
2022/04/29 12:08:02;;;;;;;12.07;5.90;;;16.00;99.90;;;;;;5068205;28;20216;-82
2022/04/29 12:10:30;;;;;;;8.80;6.47;;;16.00;99.90;;;;;;5064727;28;20285;-81
2022/04/29 12:13:00;;;;;;;9.73;6.80;;;16.10;99.90;;;;;;5061113;28;20209;-84
2022/04/29 12:15:32;;;;;;;10.40;6.40;;;16.10;99.90;;;;;;5050681;28;20680;-83
2022/04/29 12:18:01;;;;;;;8.70;7.23;;;16.00;99.90;;;;;;5063222;28;20710;-84
2022/04/29 12:20:39;;;;;;;11.40;6.67;;;16.00;99.90;;;;;;5068112;28;20208;-84
2022/04/29 12:23:13;;;;;;;9.87;6.20;;;16.00;99.90;;;;;;5067938;28;20220;-84
2022/04/29 12:25:42;;;;;;;12.13;6.83;;;15.90;99.90;;;;;;5066593;28;20628;-85
2022/04/29 12:28:18;;;;;;;10.77;7.17;;;15.90;99.90;;;;;;5066902;28;20254;-82
2022/04/29 12:36:46;;;;;;;9.00;6.30;;;15.80;99.90;;;;;;5064656;28;20254;-84
2022/04/29 12:39:15;;;;;;;8.70;6.53;;;15.70;99.90;;;;;;5057046;28;20247;-82
2022/04/29 12:41:42;;;;;;;10.33;6.43;;;15.70;99.90;;;;;;5061379;28;20243;-78
2022/04/29 12:45:03;;;;;;;7.60;5.73;;;15.70;99.90;;;;;;5045059;28;20265;-81
2022/04/29 12:47:01;;;;;;;10.23;6.67;;;15.70;99.90;;;;;;5041776;28;20641;-81
2022/04/29 12:49:28;;;;;;;8.00;5.93;;;15.80;99.90;;;;;;5045543;28;20220;-81
2022/04/29 12:51:58;;;;;;;9.50;6.43;;;15.70;99.90;;;;;;5044559;28;20549;-81
2022/04/29 12:54:31;;;;;;;10.07;5.90;;;15.60;99.90;;;;;;5044029;28;20230;-81
2022/04/29 12:56:58;;;;;;;8.27;6.60;;;15.70;99.90;;;;;;5044491;28;20264;-79
2022/04/29 12:59:25;;;;;;;12.37;6.83;;;15.70;99.90;;;;;;5042482;28;20244;-80
2022/04/29 13:01:53;;;;;;;8.57;5.93;;;15.60;99.90;;;;;;5041051;28;20270;-82
2022/04/29 13:04:20;;;;;;;11.30;6.60;;;15.60;99.90;;;;;;5045571;28;20259;-80
2022/04/29 13:06:47;;;;;;;7.27;5.77;;;15.60;99.90;;;;;;5045987;28;20301;-80
2022/04/29 13:09:14;;;;;;;11.50;6.37;;;15.60;99.90;;;;;;5045021;28;20233;-81
2022/04/29 13:11:44;;;;;;;8.90;6.20;;;15.70;99.90;;;;;;5036186;28;20213;-81
2022/04/29 13:14:14;;;;;;;10.23;6.33;;;15.50;99.90;;;;;;5043989;28;20232;-81
2022/04/29 13:16:41;;;;;;;9.07;6.00;;;15.50;99.90;;;;;;5040562;28;20292;-81
2022/04/29 13:19:08;;;;;;;8.57;5.87;;;15.50;99.90;;;;;;5045038;28;20201;-81
2022/04/29 13:21:34;;;;;;;9.73;6.57;;;15.40;99.90;;;;;;5044353;28;20205;-82
2022/04/29 13:24:01;;;;;;;9.30;5.90;;;15.40;99.90;;;;;;5045498;28;20212;-81